»·PEaware :: UAL465 KSFO-KLAS

UAL465 :: KSFO-KLAS

FLIGHT INFORMATION

Flight Status: Arrived
Operator:
United Airlines
More flights by this operator :: More flights under this callsign
Pilot: Matt G. (13672)
Aircraft: AIRBUS A320
(A320)
More flights by this aircraft type
Origin: KSFO San Francisco Intl
United States
Destination: KLAS McCarran Intl
United States
More flights between these airports :: More routes between these airports
Route: +SSTIK3 NTELL Q162 ESSAA BTY SUNST4
File this flight plan on PilotEdge
Remarks: Will request ILS 26L
Altitude:
(Current/Filed)
35,000ft
Speed:
(Current/Filed)
446kts
Departed: 24-Nov-17 04:05 PM
Arrived: 24-Nov-17 05:09 PM
Distance/Time
Traveled:
359nm/1:04
Distance/Time
To Go:
Arrived

Flight Plot

Page will automatically refresh every two minutes.

Flight plan parsing failed; only flown route is shown


Map Options




Map Legend


Flown Route
Filed Route
Departure Airport
Arrival Airport
Navaid (VOR, NDB)
Fix

Horizontal Profiles

Position Reports

Time Latitude Longitude Heading Altitude Ground
Speed
24-Nov-17 15:50 37.619195 -122.383546 291 21ft 0kts
24-Nov-17 15:51 37.619195 -122.383546 291 21ft 0kts
24-Nov-17 15:52 37.619195 -122.383546 291 21ft 0kts
24-Nov-17 15:53 37.619195 -122.383546 291 21ft 0kts
24-Nov-17 15:54 37.619195 -122.383546 291 21ft 0kts
24-Nov-17 15:55 37.619195 -122.383546 291 21ft 0kts
24-Nov-17 15:56 37.619195 -122.383546 291 21ft 0kts
24-Nov-17 15:57 37.619195 -122.383546 291 21ft 0kts
24-Nov-17 15:58 37.619195 -122.383546 291 21ft 0kts
24-Nov-17 15:59 37.619195 -122.383546 291 21ft 0kts
24-Nov-17 16:00 37.619195 -122.383546 291 21ft 0kts
24-Nov-17 16:01 37.619075 -122.383312 318 21ft 2kts
24-Nov-17 16:02 37.618514 -122.383203 27 21ft 2kts
24-Nov-17 16:03 37.618327 -122.383341 28 21ft 0kts
24-Nov-17 16:04 37.618327 -122.383341 28 21ft 0kts
24-Nov-17 16:05 37.618509 -122.383218 28 21ft 5kts
24-Nov-17 16:06 37.617058 -122.379510 190 21ft 31kts
24-Nov-17 16:07 37.609127 -122.383536 116 21ft 15kts
24-Nov-17 16:08 37.609093 -122.383457 120 21ft 0kts
24-Nov-17 16:09 37.609080 -122.383428 120 21ft 2kts
24-Nov-17 16:10 37.626010 -122.370999 29 382ft 172kts
24-Nov-17 16:11 37.673698 -122.361985 5 3322ft 202kts
24-Nov-17 16:12 37.708552 -122.412387 256 5614ft 273kts
24-Nov-17 16:13 37.645189 -122.456193 187 9017ft 293kts
24-Nov-17 16:14 37.564739 -122.465423 188 10027ft 294kts
24-Nov-17 16:15 37.484251 -122.457209 147 10041ft 305kts
24-Nov-17 16:16 37.428234 -122.368204 127 11158ft 366kts
24-Nov-17 16:17 37.393007 -122.245856 104 13403ft 391kts
24-Nov-17 16:18 37.366580 -122.112215 104 15537ft 409kts
24-Nov-17 16:19 37.339270 -121.975697 104 17430ft 426kts
24-Nov-17 16:20 37.310684 -121.833779 105 19181ft 442kts
24-Nov-17 16:21 37.280640 -121.685536 105 20819ft 456kts
24-Nov-17 16:22 37.249057 -121.530878 105 22336ft 469kts
24-Nov-17 16:23 37.216348 -121.371894 105 23734ft 481kts
24-Nov-17 16:24 37.183505 -121.213429 106 24962ft 492kts
24-Nov-17 16:25 37.148802 -121.047207 106 26205ft 500kts
24-Nov-17 16:26 37.113369 -120.878796 106 27337ft 508kts
24-Nov-17 16:27 37.076989 -120.707217 106 28406ft 515kts
24-Nov-17 16:28 37.040043 -120.534274 106 29587ft 517kts
24-Nov-17 16:29 37.009658 -120.393019 106 30670ft 514kts
24-Nov-17 16:30 36.973408 -120.225713 107 31878ft 511kts
24-Nov-17 16:31 36.936498 -120.056650 107 32934ft 510kts
24-Nov-17 16:32 36.910640 -119.884894 84 33784ft 515kts
24-Nov-17 16:33 36.954927 -119.720778 65 34653ft 510kts
24-Nov-17 16:34 37.007409 -119.560231 65 35142ft 511kts
24-Nov-17 16:35 37.060234 -119.397296 64 35144ft 517kts
24-Nov-17 16:36 37.112986 -119.233671 65 35166ft 522kts
24-Nov-17 16:37 37.166849 -119.065652 65 35317ft 525kts
24-Nov-17 16:38 37.219970 -118.898986 64 35325ft 526kts
24-Nov-17 16:39 37.272605 -118.729828 70 35314ft 525kts
24-Nov-17 16:40 37.292475 -118.549020 81 35141ft 527kts
24-Nov-17 16:41 37.308920 -118.368345 81 35103ft 525kts
24-Nov-17 16:42 37.324586 -118.193266 82 35086ft 523kts
24-Nov-17 16:43 37.340290 -118.014637 82 35090ft 523kts
24-Nov-17 16:44 37.345551 -117.832541 96 35117ft 526kts
24-Nov-17 16:45 37.329246 -117.650859 96 35144ft 526kts
24-Nov-17 16:46 37.312793 -117.469138 96 35207ft 526kts
24-Nov-17 16:47 37.283969 -117.292373 122 35265ft 521kts
24-Nov-17 16:48 37.200716 -117.150058 132 35267ft 512kts
24-Nov-17 16:49 37.115027 -117.009725 132 35227ft 511kts
24-Nov-17 16:50 37.012762 -116.894422 157 35093ft 489kts
24-Nov-17 16:51 36.896409 -116.813888 157 33971ft 483kts
24-Nov-17 16:52 36.784192 -116.724048 137 32354ft 499kts
24-Nov-17 16:53 36.692291 -116.593176 134 29407ft 507kts
24-Nov-17 16:54 36.600811 -116.463061 134 26753ft 503kts
24-Nov-17 16:55 36.510243 -116.334867 134 23588ft 493kts
24-Nov-17 16:56 36.425568 -116.215280 133 20317ft 441kts
24-Nov-17 16:57 36.345834 -116.103355 133 17828ft 432kts
24-Nov-17 16:58 36.270363 -115.997594 133 16708ft 388kts
24-Nov-17 16:59 36.204033 -115.903960 125 16045ft 333kts
24-Nov-17 17:00 36.168438 -115.799939 112 15059ft 329kts
24-Nov-17 17:01 36.134957 -115.695938 111 14015ft 326kts
24-Nov-17 17:02 36.101861 -115.593426 111 12968ft 318kts
24-Nov-17 17:03 36.069469 -115.493413 111 11951ft 311kts
24-Nov-17 17:04 36.041386 -115.406984 111 11192ft 297kts
24-Nov-17 17:05 36.026556 -115.312880 94 10309ft 279kts
24-Nov-17 17:06 36.019641 -115.218517 94 9220ft 275kts
24-Nov-17 17:07 36.013337 -115.126583 93 8253ft 266kts
24-Nov-17 17:08 36.007856 -115.040701 91 7577ft 246kts
24-Nov-17 17:09 36.002961 -114.957861 91 6611ft 240kts
24-Nov-17 17:10 36.041429 -114.911589 2 5614ft 224kts
24-Nov-17 17:11 36.074256 -114.964992 270 4661ft 228kts
24-Nov-17 17:12 36.073963 -115.040701 266 3457ft 216kts
24-Nov-17 17:13 36.073617 -115.103645 270 2558ft 150kts
24-Nov-17 17:14 36.073809 -115.143581 285 2120ft 8kts
24-Nov-17 17:15 36.075746 -115.146516 356 2120ft 12kts
24-Nov-17 17:16 36.077674 -115.146195 62 2120ft 10kts
24-Nov-17 17:17 36.078229 -115.141597 356 2120ft 15kts
24-Nov-17 17:18 36.081697 -115.140358 139 2120ft 3kts
24-Nov-17 17:19 36.081226 -115.139856 140 2120ft 0kts
24-Nov-17 17:20 36.081226 -115.139856 140 2120ft 0kts
24-Nov-17 17:21 36.081226 -115.139856 140 2120ft 0kts

Navigation Log

Ident Type
Flight plan parsing failed, navigation log unavailable